sensor_id;sensor_type;location;lat;lon;timestamp;temperature;humidity
46590;DHT22;32313;48.722;9.362;2023-04-25T00:00:26;6.70;99.90
46590;DHT22;32313;48.722;9.362;2023-04-25T00:02:52;6.70;99.90
46590;DHT22;32313;48.722;9.362;2023-04-25T00:05:17;6.70;99.90
46590;DHT22;32313;48.722;9.362;2023-04-25T00:07:44;6.60;99.90
46590;DHT22;32313;48.722;9.362;2023-04-25T00:10:11;6.60;99.90
46590;DHT22;32313;48.722;9.362;2023-04-25T00:12:37;6.60;99.90
46590;DHT22;32313;48.722;9.362;2023-04-25T00:15:04;6.50;99.90
46590;DHT22;32313;48.722;9.362;2023-04-25T00:17:30;6.50;99.90
46590;DHT22;32313;48.722;9.362;2023-04-25T00:19:56;6.50;99.90
46590;DHT22;32313;48.722;9.362;2023-04-25T00:22:23;6.50;99.90
46590;DHT22;32313;48.722;9.362;2023-04-25T00:24:49;6.50;99.90
46590;DHT22;32313;48.722;9.362;2023-04-25T00:27:15;6.60;99.90
46590;DHT22;32313;48.722;9.362;2023-04-25T00:29:41;6.60;99.90
46590;DHT22;32313;48.722;9.362;2023-04-25T00:32:07;6.60;99.90
46590;DHT22;32313;48.722;9.362;2023-04-25T00:34:33;6.60;99.90
46590;DHT22;32313;48.722;9.362;2023-04-25T00:36:59;6.60;99.90
46590;DHT22;32313;48.722;9.362;2023-04-25T00:39:27;6.50;99.90
46590;DHT22;32313;48.722;9.362;2023-04-25T00:41:54;6.50;99.90
46590;DHT22;32313;48.722;9.362;2023-04-25T00:44:20;6.50;99.90
46590;DHT22;32313;48.722;9.362;2023-04-25T00:46:47;6.60;99.90
46590;DHT22;32313;48.722;9.362;2023-04-25T00:49:13;6.60;99.90
46590;DHT22;32313;48.722;9.362;2023-04-25T00:51:41;6.70;99.90
46590;DHT22;32313;48.722;9.362;2023-04-25T00:54:07;6.70;99.90
46590;DHT22;32313;48.722;9.362;2023-04-25T00:56:33;6.70;99.90
46590;DHT22;32313;48.722;9.362;2023-04-25T00:58:59;6.70;99.90
46590;DHT22;32313;48.722;9.362;2023-04-25T01:01:25;6.70;99.90
46590;DHT22;32313;48.722;9.362;2023-04-25T01:03:51;6.70;99.90
46590;DHT22;32313;48.722;9.362;2023-04-25T01:06:17;6.70;99.90
46590;DHT22;32313;48.722;9.362;2023-04-25T01:08:43;6.70;99.90
46590;DHT22;32313;48.722;9.362;2023-04-25T01:11:09;6.80;99.90
46590;DHT22;32313;48.722;9.362;2023-04-25T01:13:35;6.80;99.90
46590;DHT22;32313;48.722;9.362;2023-04-25T01:16:02;6.80;99.90
46590;DHT22;32313;48.722;9.362;2023-04-25T01:18:28;6.80;99.90
46590;DHT22;32313;48.722;9.362;2023-04-25T01:20:54;6.80;99.90
46590;DHT22;32313;48.722;9.362;2023-04-25T01:23:21;6.80;99.90
46590;DHT22;32313;48.722;9.362;2023-04-25T01:25:50;6.80;99.90
46590;DHT22;32313;48.722;9.362;2023-04-25T01:28:16;6.80;99.90
46590;DHT22;32313;48.722;9.362;2023-04-25T01:30:43;6.80;99.90
46590;DHT22;32313;48.722;9.362;2023-04-25T01:33:09;6.80;99.90
46590;DHT22;32313;48.722;9.362;2023-04-25T01:35:35;6.80;99.90
46590;DHT22;32313;48.722;9.362;2023-04-25T01:38:01;6.80;99.90
46590;DHT22;32313;48.722;9.362;2023-04-25T01:40:27;6.80;99.90
46590;DHT22;32313;48.722;9.362;2023-04-25T01:42:53;6.80;99.90
46590;DHT22;32313;48.722;9.362;2023-04-25T01:45:20;6.70;99.90
46590;DHT22;32313;48.722;9.362;2023-04-25T01:47:47;6.80;99.90
46590;DHT22;32313;48.722;9.362;2023-04-25T01:50:16;6.80;99.90
46590;DHT22;32313;48.722;9.362;2023-04-25T01:52:42;6.90;99.90
46590;DHT22;32313;48.722;9.362;2023-04-25T01:55:09;6.90;99.90
46590;DHT22;32313;48.722;9.362;2023-04-25T01:57:39;6.80;99.90
46590;DHT22;32313;48.722;9.362;2023-04-25T02:00:06;6.90;99.90
46590;DHT22;32313;48.722;9.362;2023-04-25T02:02:38;6.80;99.90
46590;DHT22;32313;48.722;9.362;2023-04-25T02:05:06;6.80;99.90
46590;DHT22;32313;48.722;9.362;2023-04-25T02:07:34;6.80;99.90
46590;DHT22;32313;48.722;9.362;2023-04-25T02:10:01;6.80;99.90
46590;DHT22;32313;48.722;9.362;2023-04-25T02:12:30;6.80;99.90
46590;DHT22;32313;48.722;9.362;2023-04-25T02:15:14;6.70;99.90
46590;DHT22;32313;48.722;9.362;2023-04-25T02:17:49;6.70;99.90
46590;DHT22;32313;48.722;9.362;2023-04-25T02:20:15;6.60;99.90
46590;DHT22;32313;48.722;9.362;2023-04-25T02:22:45;6.60;99.90
46590;DHT22;32313;48.722;9.362;2023-04-25T02:25:11;6.50;99.90
46590;DHT22;32313;48.722;9.362;2023-04-25T02:27:37;6.50;99.90
46590;DHT22;32313;48.722;9.362;2023-04-25T02:30:04;6.40;99.90
46590;DHT22;32313;48.722;9.362;2023-04-25T02:32:33;6.30;99.90
46590;DHT22;32313;48.722;9.362;2023-04-25T02:35:00;6.30;99.90
46590;DHT22;32313;48.722;9.362;2023-04-25T02:37:32;6.30;99.90
46590;DHT22;32313;48.722;9.362;2023-04-25T02:39:58;6.20;99.90
46590;DHT22;32313;48.722;9.362;2023-04-25T02:42:23;6.20;99.90
46590;DHT22;32313;48.722;9.362;2023-04-25T02:44:49;6.10;99.90
46590;DHT22;32313;48.722;9.362;2023-04-25T02:47:15;6.10;99.90
46590;DHT22;32313;48.722;9.362;2023-04-25T02:49:42;6.10;99.90
46590;DHT22;32313;48.722;9.362;2023-04-25T02:52:08;6.00;99.90
46590;DHT22;32313;48.722;9.362;2023-04-25T02:54:35;6.00;99.90
46590;DHT22;32313;48.722;9.362;2023-04-25T02:57:01;6.00;99.90
46590;DHT22;32313;48.722;9.362;2023-04-25T02:59:33;5.90;99.90
46590;DHT22;32313;48.722;9.362;2023-04-25T03:01:59;5.90;99.90
46590;DHT22;32313;48.722;9.362;2023-04-25T03:04:25;5.90;99.90
46590;DHT22;32313;48.722;9.362;2023-04-25T03:06:51;5.80;99.90
46590;DHT22;32313;48.722;9.362;2023-04-25T03:09:20;5.80;99.90
46590;DHT22;32313;48.722;9.362;2023-04-25T03:11:46;5.80;99.90
46590;DHT22;32313;48.722;9.362;2023-04-25T03:14:13;5.80;99.90
46590;DHT22;32313;48.722;9.362;2023-04-25T03:16:38;5.80;99.90
46590;DHT22;32313;48.722;9.362;2023-04-25T03:19:04;5.80;99.90
46590;DHT22;32313;48.722;9.362;2023-04-25T03:21:32;5.90;99.90
46590;DHT22;32313;48.722;9.362;2023-04-25T03:24:00;5.90;99.90
46590;DHT22;32313;48.722;9.362;2023-04-25T03:26:26;5.90;99.90
46590;DHT22;32313;48.722;9.362;2023-04-25T03:28:51;5.90;99.90
46590;DHT22;32313;48.722;9.362;2023-04-25T03:31:18;5.90;99.90
46590;DHT22;32313;48.722;9.362;2023-04-25T03:33:43;6.00;99.90
46590;DHT22;32313;48.722;9.362;2023-04-25T03:36:09;6.00;99.90
46590;DHT22;32313;48.722;9.362;2023-04-25T03:38:36;6.10;99.90
46590;DHT22;32313;48.722;9.362;2023-04-25T03:41:02;6.10;99.90
46590;DHT22;32313;48.722;9.362;2023-04-25T03:43:44;6.10;99.90
46590;DHT22;32313;48.722;9.362;2023-04-25T03:46:12;6.10;99.90
46590;DHT22;32313;48.722;9.362;2023-04-25T03:48:39;6.10;99.90
46590;DHT22;32313;48.722;9.362;2023-04-25T03:51:05;6.10;99.90
46590;DHT22;32313;48.722;9.362;2023-04-25T03:53:34;6.10;99.90
46590;DHT22;32313;48.722;9.362;2023-04-25T03:56:14;6.00;99.90
46590;DHT22;32313;48.722;9.362;2023-04-25T03:58:40;6.00;99.90
46590;DHT22;32313;48.722;9.362;2023-04-25T04:01:06;5.90;99.90
46590;DHT22;32313;48.722;9.362;2023-04-25T04:03:35;5.80;99.90
46590;DHT22;32313;48.722;9.362;2023-04-25T04:06:05;5.70;99.90
46590;DHT22;32313;48.722;9.362;2023-04-25T04:08:35;5.60;99.90
46590;DHT22;32313;48.722;9.362;2023-04-25T04:11:02;5.50;99.90
46590;DHT22;32313;48.722;9.362;2023-04-25T04:13:28;5.40;99.90
46590;DHT22;32313;48.722;9.362;2023-04-25T04:15:55;5.40;99.90
46590;DHT22;32313;48.722;9.362;2023-04-25T04:18:21;5.50;99.90
46590;DHT22;32313;48.722;9.362;2023-04-25T04:20:47;5.60;99.90
46590;DHT22;32313;48.722;9.362;2023-04-25T04:23:13;5.70;99.90
46590;DHT22;32313;48.722;9.362;2023-04-25T04:25:39;5.80;99.90
46590;DHT22;32313;48.722;9.362;2023-04-25T04:28:06;5.80;99.90
46590;DHT22;32313;48.722;9.362;2023-04-25T04:30:51;5.70;99.90
46590;DHT22;32313;48.722;9.362;2023-04-25T04:33:18;5.60;99.90
46590;DHT22;32313;48.722;9.362;2023-04-25T04:35:51;5.70;99.90
46590;DHT22;32313;48.722;9.362;2023-04-25T04:38:19;5.70;99.90
46590;DHT22;32313;48.722;9.362;2023-04-25T04:40:45;5.80;99.90
46590;DHT22;32313;48.722;9.362;2023-04-25T04:43:19;5.80;99.90
46590;DHT22;32313;48.722;9.362;2023-04-25T04:46:20;5.80;99.90
46590;DHT22;32313;48.722;9.362;2023-04-25T04:49:13;5.80;99.90
46590;DHT22;32313;48.722;9.362;2023-04-25T04:51:50;5.80;99.90
46590;DHT22;32313;48.722;9.362;2023-04-25T04:54:51;5.90;99.90
46590;DHT22;32313;48.722;9.362;2023-04-25T04:57:48;6.00;99.90
46590;DHT22;32313;48.722;9.362;2023-04-25T05:00:34;6.10;99.90
46590;DHT22;32313;48.722;9.362;2023-04-25T05:03:16;6.20;99.90
46590;DHT22;32313;48.722;9.362;2023-04-25T05:06:10;6.30;99.90
46590;DHT22;32313;48.722;9.362;2023-04-25T05:09:06;6.40;99.90
46590;DHT22;32313;48.722;9.362;2023-04-25T05:11:48;6.60;99.90
46590;DHT22;32313;48.722;9.362;2023-04-25T05:14:32;6.70;99.90
46590;DHT22;32313;48.722;9.362;2023-04-25T05:17:17;6.80;99.90
46590;DHT22;32313;48.722;9.362;2023-04-25T05:20:02;6.80;99.90
46590;DHT22;32313;48.722;9.362;2023-04-25T05:22:49;6.90;99.90
46590;DHT22;32313;48.722;9.362;2023-04-25T05:25:35;6.90;99.90
46590;DHT22;32313;48.722;9.362;2023-04-25T05:28:10;7.00;99.90
46590;DHT22;32313;48.722;9.362;2023-04-25T05:30:53;7.00;99.90
46590;DHT22;32313;48.722;9.362;2023-04-25T05:33:28;7.00;99.90
46590;DHT22;32313;48.722;9.362;2023-04-25T05:35:53;7.10;99.90
46590;DHT22;32313;48.722;9.362;2023-04-25T05:38:20;7.20;99.90
46590;DHT22;32313;48.722;9.362;2023-04-25T05:41:04;7.30;99.90
46590;DHT22;32313;48.722;9.362;2023-04-25T05:43:54;7.40;99.90
46590;DHT22;32313;48.722;9.362;2023-04-25T05:46:27;7.60;99.90
46590;DHT22;32313;48.722;9.362;2023-04-25T05:49:22;7.70;99.90
46590;DHT22;32313;48.722;9.362;2023-04-25T05:51:53;7.70;99.90
46590;DHT22;32313;48.722;9.362;2023-04-25T05:54:37;7.80;99.90
46590;DHT22;32313;48.722;9.362;2023-04-25T05:57:03;7.90;99.90
46590;DHT22;32313;48.722;9.362;2023-04-25T05:59:30;8.00;99.90
46590;DHT22;32313;48.722;9.362;2023-04-25T06:01:55;8.10;99.90
46590;DHT22;32313;48.722;9.362;2023-04-25T06:04:22;8.30;99.90
46590;DHT22;32313;48.722;9.362;2023-04-25T06:06:47;8.50;99.90
46590;DHT22;32313;48.722;9.362;2023-04-25T06:09:13;8.70;99.90
46590;DHT22;32313;48.722;9.362;2023-04-25T06:11:39;8.90;99.90
46590;DHT22;32313;48.722;9.362;2023-04-25T06:14:06;9.10;99.90
46590;DHT22;32313;48.722;9.362;2023-04-25T06:16:33;9.40;99.90
46590;DHT22;32313;48.722;9.362;2023-04-25T06:18:59;9.60;99.90
46590;DHT22;32313;48.722;9.362;2023-04-25T06:21:25;9.80;99.90
46590;DHT22;32313;48.722;9.362;2023-04-25T06:23:51;9.90;99.90
46590;DHT22;32313;48.722;9.362;2023-04-25T06:26:21;9.80;99.90
46590;DHT22;32313;48.722;9.362;2023-04-25T06:28:47;9.70;99.90
46590;DHT22;32313;48.722;9.362;2023-04-25T06:31:13;9.40;99.90
46590;DHT22;32313;48.722;9.362;2023-04-25T06:33:40;9.20;99.90
46590;DHT22;32313;48.722;9.362;2023-04-25T06:36:06;9.10;99.90
46590;DHT22;32313;48.722;9.362;2023-04-25T06:38:32;9.10;99.90
46590;DHT22;32313;48.722;9.362;2023-04-25T06:40:58;9.10;99.90
46590;DHT22;32313;48.722;9.362;2023-04-25T06:43:28;9.10;99.90
46590;DHT22;32313;48.722;9.362;2023-04-25T06:46:23;8.90;99.90
46590;DHT22;32313;48.722;9.362;2023-04-25T06:48:51;8.90;99.90
46590;DHT22;32313;48.722;9.362;2023-04-25T06:51:18;8.90;99.90
46590;DHT22;32313;48.722;9.362;2023-04-25T06:53:44;8.80;99.90
46590;DHT22;32313;48.722;9.362;2023-04-25T06:56:18;8.80;99.90
46590;DHT22;32313;48.722;9.362;2023-04-25T06:58:55;8.70;99.90
46590;DHT22;32313;48.722;9.362;2023-04-25T07:01:28;8.70;99.90
46590;DHT22;32313;48.722;9.362;2023-04-25T07:03:54;8.60;99.90
46590;DHT22;32313;48.722;9.362;2023-04-25T07:06:21;8.50;99.90
46590;DHT22;32313;48.722;9.362;2023-04-25T07:08:47;8.40;99.90
46590;DHT22;32313;48.722;9.362;2023-04-25T07:11:13;8.40;99.90
46590;DHT22;32313;48.722;9.362;2023-04-25T07:13:39;8.30;99.90
46590;DHT22;32313;48.722;9.362;2023-04-25T07:16:06;8.30;99.90
46590;DHT22;32313;48.722;9.362;2023-04-25T07:18:33;8.30;99.90
46590;DHT22;32313;48.722;9.362;2023-04-25T07:21:00;8.40;99.90
46590;DHT22;32313;48.722;9.362;2023-04-25T07:23:26;8.40;99.90
46590;DHT22;32313;48.722;9.362;2023-04-25T07:25:52;8.40;99.90
46590;DHT22;32313;48.722;9.362;2023-04-25T07:28:21;8.40;99.90
46590;DHT22;32313;48.722;9.362;2023-04-25T07:30:47;8.40;99.90
46590;DHT22;32313;48.722;9.362;2023-04-25T07:33:13;8.30;99.90
46590;DHT22;32313;48.722;9.362;2023-04-25T07:35:39;8.30;99.90
46590;DHT22;32313;48.722;9.362;2023-04-25T07:38:05;8.30;99.90
46590;DHT22;32313;48.722;9.362;2023-04-25T07:40:32;8.30;99.90
46590;DHT22;32313;48.722;9.362;2023-04-25T07:43:04;8.40;99.90
46590;DHT22;32313;48.722;9.362;2023-04-25T07:45:43;8.30;99.90
46590;DHT22;32313;48.722;9.362;2023-04-25T07:48:09;8.30;99.90
46590;DHT22;32313;48.722;9.362;2023-04-25T07:50:37;8.20;99.90
46590;DHT22;32313;48.722;9.362;2023-04-25T07:53:03;8.10;99.90
46590;DHT22;32313;48.722;9.362;2023-04-25T07:55:37;8.00;99.90
46590;DHT22;32313;48.722;9.362;2023-04-25T07:58:13;7.80;99.90
46590;DHT22;32313;48.722;9.362;2023-04-25T08:00:43;7.80;99.90
46590;DHT22;32313;48.722;9.362;2023-04-25T08:03:24;7.70;99.90
46590;DHT22;32313;48.722;9.362;2023-04-25T08:05:50;7.70;99.90
46590;DHT22;32313;48.722;9.362;2023-04-25T08:08:17;7.70;99.90
46590;DHT22;32313;48.722;9.362;2023-04-25T08:10:43;7.70;99.90
46590;DHT22;32313;48.722;9.362;2023-04-25T08:13:08;7.70;99.90
46590;DHT22;32313;48.722;9.362;2023-04-25T08:15:35;7.60;99.90
46590;DHT22;32313;48.722;9.362;2023-04-25T08:18:01;7.60;99.90
46590;DHT22;32313;48.722;9.362;2023-04-25T08:20:27;7.60;99.90
46590;DHT22;32313;48.722;9.362;2023-04-25T08:22:55;7.70;99.90
46590;DHT22;32313;48.722;9.362;2023-04-25T08:25:42;7.70;99.90
46590;DHT22;32313;48.722;9.362;2023-04-25T08:28:10;7.80;99.90
46590;DHT22;32313;48.722;9.362;2023-04-25T08:30:37;7.80;99.90
46590;DHT22;32313;48.722;9.362;2023-04-25T08:33:04;7.70;99.90
46590;DHT22;32313;48.722;9.362;2023-04-25T08:35:54;7.70;99.90
46590;DHT22;32313;48.722;9.362;2023-04-25T08:38:20;7.60;99.90
46590;DHT22;32313;48.722;9.362;2023-04-25T08:40:49;7.50;99.90
46590;DHT22;32313;48.722;9.362;2023-04-25T08:43:19;7.40;99.90
46590;DHT22;32313;48.722;9.362;2023-04-25T08:45:45;7.40;99.90
46590;DHT22;32313;48.722;9.362;2023-04-25T08:48:19;7.50;99.90
46590;DHT22;32313;48.722;9.362;2023-04-25T08:50:51;7.50;99.90
46590;DHT22;32313;48.722;9.362;2023-04-25T08:53:30;7.40;99.90
46590;DHT22;32313;48.722;9.362;2023-04-25T08:55:59;7.40;99.90
46590;DHT22;32313;48.722;9.362;2023-04-25T08:58:28;7.40;99.90
46590;DHT22;32313;48.722;9.362;2023-04-25T09:00:54;7.30;99.90
46590;DHT22;32313;48.722;9.362;2023-04-25T09:03:22;7.30;99.90
46590;DHT22;32313;48.722;9.362;2023-04-25T09:05:49;7.20;99.90
46590;DHT22;32313;48.722;9.362;2023-04-25T09:08:15;7.20;99.90
46590;DHT22;32313;48.722;9.362;2023-04-25T09:10:43;7.20;99.90
46590;DHT22;32313;48.722;9.362;2023-04-25T09:13:11;7.20;99.90
46590;DHT22;32313;48.722;9.362;2023-04-25T09:16:21;7.30;99.90
46590;DHT22;32313;48.722;9.362;2023-04-25T09:19:23;7.30;99.90
46590;DHT22;32313;48.722;9.362;2023-04-25T09:21:50;7.40;99.90
46590;DHT22;32313;48.722;9.362;2023-04-25T09:24:36;7.50;99.90
46590;DHT22;32313;48.722;9.362;2023-04-25T09:27:10;7.60;99.90
46590;DHT22;32313;48.722;9.362;2023-04-25T09:29:37;7.60;99.90
46590;DHT22;32313;48.722;9.362;2023-04-25T09:32:18;7.60;99.90
46590;DHT22;32313;48.722;9.362;2023-04-25T09:34:52;7.70;99.90
46590;DHT22;32313;48.722;9.362;2023-04-25T09:37:24;7.70;99.90
46590;DHT22;32313;48.722;9.362;2023-04-25T09:40:19;7.80;99.90
46590;DHT22;32313;48.722;9.362;2023-04-25T09:42:53;7.80;99.90
46590;DHT22;32313;48.722;9.362;2023-04-25T09:45:19;7.60;99.90
46590;DHT22;32313;48.722;9.362;2023-04-25T09:47:45;7.60;99.90
46590;DHT22;32313;48.722;9.362;2023-04-25T09:50:16;7.50;99.90
46590;DHT22;32313;48.722;9.362;2023-04-25T09:53:03;7.50;99.90
46590;DHT22;32313;48.722;9.362;2023-04-25T09:55:34;7.40;99.90
46590;DHT22;32313;48.722;9.362;2023-04-25T09:58:05;7.40;99.90
46590;DHT22;32313;48.722;9.362;2023-04-25T10:00:34;7.30;99.90
46590;DHT22;32313;48.722;9.362;2023-04-25T10:03:12;7.30;99.90
46590;DHT22;32313;48.722;9.362;2023-04-25T10:05:56;7.30;99.90
46590;DHT22;32313;48.722;9.362;2023-04-25T10:08:24;7.20;99.90
46590;DHT22;32313;48.722;9.362;2023-04-25T10:10:52;7.30;99.90
46590;DHT22;32313;48.722;9.362;2023-04-25T10:13:18;7.40;99.90
46590;DHT22;32313;48.722;9.362;2023-04-25T10:15:44;7.30;99.90
46590;DHT22;32313;48.722;9.362;2023-04-25T10:18:10;7.20;99.90
46590;DHT22;32313;48.722;9.362;2023-04-25T10:20:36;7.20;99.90
46590;DHT22;32313;48.722;9.362;2023-04-25T10:23:13;7.10;99.90
46590;DHT22;32313;48.722;9.362;2023-04-25T10:25:41;7.10;99.90
46590;DHT22;32313;48.722;9.362;2023-04-25T10:28:07;6.90;99.90
46590;DHT22;32313;48.722;9.362;2023-04-25T10:30:32;6.70;99.90
46590;DHT22;32313;48.722;9.362;2023-04-25T10:32:59;6.60;99.90
46590;DHT22;32313;48.722;9.362;2023-04-25T10:35:27;6.40;99.90
46590;DHT22;32313;48.722;9.362;2023-04-25T10:38:25;6.30;99.90
46590;DHT22;32313;48.722;9.362;2023-04-25T10:41:04;6.30;99.90
46590;DHT22;32313;48.722;9.362;2023-04-25T10:45:56;6.20;99.90
46590;DHT22;32313;48.722;9.362;2023-04-25T10:48:28;6.20;99.90
46590;DHT22;32313;48.722;9.362;2023-04-25T10:54:07;6.20;99.90
46590;DHT22;32313;48.722;9.362;2023-04-25T10:56:37;6.20;99.90
46590;DHT22;32313;48.722;9.362;2023-04-25T10:59:12;6.30;99.90
46590;DHT22;32313;48.722;9.362;2023-04-25T11:04:04;6.50;99.90
46590;DHT22;32313;48.722;9.362;2023-04-25T11:06:42;6.50;99.90
46590;DHT22;32313;48.722;9.362;2023-04-25T11:09:11;6.60;99.90
46590;DHT22;32313;48.722;9.362;2023-04-25T11:11:39;6.60;99.90
46590;DHT22;32313;48.722;9.362;2023-04-25T11:14:04;6.60;99.90
46590;DHT22;32313;48.722;9.362;2023-04-25T11:16:30;6.60;99.90
46590;DHT22;32313;48.722;9.362;2023-04-25T11:18:58;6.70;99.90
46590;DHT22;32313;48.722;9.362;2023-04-25T11:21:25;6.80;99.90
46590;DHT22;32313;48.722;9.362;2023-04-25T11:23:54;6.80;99.90
46590;DHT22;32313;48.722;9.362;2023-04-25T11:26:20;6.90;99.90
46590;DHT22;32313;48.722;9.362;2023-04-25T11:28:46;6.70;99.90
46590;DHT22;32313;48.722;9.362;2023-04-25T11:31:12;6.70;99.90
46590;DHT22;32313;48.722;9.362;2023-04-25T11:33:38;6.60;99.90
46590;DHT22;32313;48.722;9.362;2023-04-25T11:36:06;6.50;99.90
46590;DHT22;32313;48.722;9.362;2023-04-25T11:38:37;6.50;99.90
46590;DHT22;32313;48.722;9.362;2023-04-25T11:41:03;6.50;99.90
46590;DHT22;32313;48.722;9.362;2023-04-25T11:43:28;6.70;99.90
46590;DHT22;32313;48.722;9.362;2023-04-25T11:45:54;6.80;99.90
46590;DHT22;32313;48.722;9.362;2023-04-25T11:48:20;6.90;99.90
46590;DHT22;32313;48.722;9.362;2023-04-25T11:50:46;6.80;99.90
46590;DHT22;32313;48.722;9.362;2023-04-25T11:53:12;6.80;99.90
46590;DHT22;32313;48.722;9.362;2023-04-25T11:55:38;6.90;99.90
46590;DHT22;32313;48.722;9.362;2023-04-25T11:58:05;7.00;99.90
46590;DHT22;32313;48.722;9.362;2023-04-25T12:00:31;7.30;99.90
46590;DHT22;32313;48.722;9.362;2023-04-25T12:02:58;7.40;99.90
46590;DHT22;32313;48.722;9.362;2023-04-25T12:05:25;7.50;99.90
46590;DHT22;32313;48.722;9.362;2023-04-25T12:07:51;7.60;99.90
46590;DHT22;32313;48.722;9.362;2023-04-25T12:10:18;7.60;99.90
46590;DHT22;32313;48.722;9.362;2023-04-25T12:12:48;7.60;99.90
46590;DHT22;32313;48.722;9.362;2023-04-25T12:15:18;7.70;99.90
46590;DHT22;32313;48.722;9.362;2023-04-25T12:17:46;7.90;99.90
46590;DHT22;32313;48.722;9.362;2023-04-25T12:20:24;7.90;99.90
46590;DHT22;32313;48.722;9.362;2023-04-25T12:22:51;8.00;99.90
46590;DHT22;32313;48.722;9.362;2023-04-25T12:25:43;8.10;99.90
46590;DHT22;32313;48.722;9.362;2023-04-25T12:33:22;8.00;99.90
46590;DHT22;32313;48.722;9.362;2023-04-25T12:35:48;8.20;99.90
46590;DHT22;32313;48.722;9.362;2023-04-25T12:38:27;8.20;99.90
46590;DHT22;32313;48.722;9.362;2023-04-25T12:40:54;8.30;99.90
46590;DHT22;32313;48.722;9.362;2023-04-25T12:43:20;8.30;99.90
46590;DHT22;32313;48.722;9.362;2023-04-25T12:45:54;8.40;99.90
46590;DHT22;32313;48.722;9.362;2023-04-25T12:48:29;8.50;99.90
46590;DHT22;32313;48.722;9.362;2023-04-25T12:50:55;8.50;99.90
46590;DHT22;32313;48.722;9.362;2023-04-25T12:53:21;8.60;99.90
46590;DHT22;32313;48.722;9.362;2023-04-25T12:55:48;8.70;99.90
46590;DHT22;32313;48.722;9.362;2023-04-25T12:58:14;8.70;99.90
46590;DHT22;32313;48.722;9.362;2023-04-25T13:00:40;8.50;99.90
46590;DHT22;32313;48.722;9.362;2023-04-25T13:03:06;8.50;99.90
46590;DHT22;32313;48.722;9.362;2023-04-25T13:05:31;8.40;99.90
46590;DHT22;32313;48.722;9.362;2023-04-25T13:07:57;8.30;99.90
46590;DHT22;32313;48.722;9.362;2023-04-25T13:10:23;8.30;99.90
46590;DHT22;32313;48.722;9.362;2023-04-25T13:12:49;8.50;99.90
46590;DHT22;32313;48.722;9.362;2023-04-25T13:15:14;8.70;99.90
46590;DHT22;32313;48.722;9.362;2023-04-25T13:17:41;8.90;99.90
46590;DHT22;32313;48.722;9.362;2023-04-25T13:20:08;9.10;99.90
46590;DHT22;32313;48.722;9.362;2023-04-25T13:22:40;9.40;99.90
46590;DHT22;32313;48.722;9.362;2023-04-25T13:25:07;9.60;99.90
46590;DHT22;32313;48.722;9.362;2023-04-25T13:27:34;10.00;99.90
46590;DHT22;32313;48.722;9.362;2023-04-25T13:30:02;10.70;99.90
46590;DHT22;32313;48.722;9.362;2023-04-25T13:32:36;11.40;99.90
46590;DHT22;32313;48.722;9.362;2023-04-25T13:35:11;11.50;99.90
46590;DHT22;32313;48.722;9.362;2023-04-25T13:37:38;12.00;99.90
46590;DHT22;32313;48.722;9.362;2023-04-25T13:40:06;12.70;99.90
46590;DHT22;32313;48.722;9.362;2023-04-25T13:42:35;13.40;99.90
46590;DHT22;32313;48.722;9.362;2023-04-25T13:45:01;14.20;99.90
46590;DHT22;32313;48.722;9.362;2023-04-25T13:47:29;14.50;99.90
46590;DHT22;32313;48.722;9.362;2023-04-25T13:49:55;14.00;99.90
46590;DHT22;32313;48.722;9.362;2023-04-25T13:52:21;13.10;99.90
46590;DHT22;32313;48.722;9.362;2023-04-25T13:54:49;12.50;99.90
46590;DHT22;32313;48.722;9.362;2023-04-25T13:57:15;12.10;99.90
46590;DHT22;32313;48.722;9.362;2023-04-25T13:59:41;12.00;99.90
46590;DHT22;32313;48.722;9.362;2023-04-25T14:02:07;12.10;99.90
46590;DHT22;32313;48.722;9.362;2023-04-25T14:04:33;12.10;99.90
46590;DHT22;32313;48.722;9.362;2023-04-25T14:06:58;12.00;99.90
46590;DHT22;32313;48.722;9.362;2023-04-25T14:09:25;11.90;99.90
46590;DHT22;32313;48.722;9.362;2023-04-25T14:11:52;12.00;99.90
46590;DHT22;32313;48.722;9.362;2023-04-25T14:14:18;12.10;99.90
46590;DHT22;32313;48.722;9.362;2023-04-25T14:16:44;12.00;99.90
46590;DHT22;32313;48.722;9.362;2023-04-25T14:19:11;11.90;99.90
46590;DHT22;32313;48.722;9.362;2023-04-25T14:21:36;12.00;99.90
46590;DHT22;32313;48.722;9.362;2023-04-25T14:24:02;11.80;99.90
46590;DHT22;32313;48.722;9.362;2023-04-25T14:26:28;11.60;99.90
46590;DHT22;32313;48.722;9.362;2023-04-25T14:28:53;11.50;99.90
46590;DHT22;32313;48.722;9.362;2023-04-25T14:31:19;11.20;99.90
46590;DHT22;32313;48.722;9.362;2023-04-25T14:33:45;11.10;99.90
46590;DHT22;32313;48.722;9.362;2023-04-25T14:36:10;11.10;99.90
46590;DHT22;32313;48.722;9.362;2023-04-25T14:38:36;11.20;99.90
46590;DHT22;32313;48.722;9.362;2023-04-25T14:41:02;11.10;99.90
46590;DHT22;32313;48.722;9.362;2023-04-25T14:43:28;11.10;99.90
46590;DHT22;32313;48.722;9.362;2023-04-25T14:45:53;11.50;99.90
46590;DHT22;32313;48.722;9.362;2023-04-25T14:48:19;12.40;99.90
46590;DHT22;32313;48.722;9.362;2023-04-25T14:50:45;13.20;99.90
46590;DHT22;32313;48.722;9.362;2023-04-25T14:53:12;13.20;99.90
46590;DHT22;32313;48.722;9.362;2023-04-25T14:55:38;13.70;99.90
46590;DHT22;32313;48.722;9.362;2023-04-25T14:58:03;14.10;99.90
46590;DHT22;32313;48.722;9.362;2023-04-25T15:00:30;13.90;99.90
46590;DHT22;32313;48.722;9.362;2023-04-25T15:02:57;13.30;99.90
46590;DHT22;32313;48.722;9.362;2023-04-25T15:05:23;13.00;99.90
46590;DHT22;32313;48.722;9.362;2023-04-25T15:07:49;12.90;99.90
46590;DHT22;32313;48.722;9.362;2023-04-25T15:10:16;12.90;99.90
46590;DHT22;32313;48.722;9.362;2023-04-25T15:12:45;12.70;99.90
46590;DHT22;32313;48.722;9.362;2023-04-25T15:15:11;12.80;99.90
46590;DHT22;32313;48.722;9.362;2023-04-25T15:17:46;13.10;99.90
46590;DHT22;32313;48.722;9.362;2023-04-25T15:20:13;12.80;99.90
46590;DHT22;32313;48.722;9.362;2023-04-25T15:22:40;12.40;99.90
46590;DHT22;32313;48.722;9.362;2023-04-25T15:25:09;12.30;99.90
46590;DHT22;32313;48.722;9.362;2023-04-25T15:27:36;12.50;99.90
46590;DHT22;32313;48.722;9.362;2023-04-25T15:30:12;12.50;99.90
46590;DHT22;32313;48.722;9.362;2023-04-25T15:32:39;12.10;99.90
46590;DHT22;32313;48.722;9.362;2023-04-25T15:35:06;12.00;99.90
46590;DHT22;32313;48.722;9.362;2023-04-25T15:37:35;12.60;99.90
46590;DHT22;32313;48.722;9.362;2023-04-25T15:40:08;12.90;99.90
46590;DHT22;32313;48.722;9.362;2023-04-25T15:42:38;13.50;99.90
46590;DHT22;32313;48.722;9.362;2023-04-25T15:45:08;13.50;99.90
46590;DHT22;32313;48.722;9.362;2023-04-25T15:47:36;12.80;99.90
46590;DHT22;32313;48.722;9.362;2023-04-25T15:50:04;12.20;99.90
46590;DHT22;32313;48.722;9.362;2023-04-25T15:52:31;11.70;99.90
46590;DHT22;32313;48.722;9.362;2023-04-25T15:54:57;11.50;99.90
46590;DHT22;32313;48.722;9.362;2023-04-25T15:57:22;11.30;99.90
46590;DHT22;32313;48.722;9.362;2023-04-25T15:59:48;11.20;99.90
46590;DHT22;32313;48.722;9.362;2023-04-25T16:02:15;11.10;99.90
46590;DHT22;32313;48.722;9.362;2023-04-25T16:04:41;10.90;99.90
46590;DHT22;32313;48.722;9.362;2023-04-25T16:07:07;10.80;99.90
46590;DHT22;32313;48.722;9.362;2023-04-25T16:09:34;10.60;99.90